Historique des stations

Station météo de Colombiers

Altitude de la station : 182 m







Données météorologiques pour le 18/08/2022
Date
Heure
Températures Humidité Point de rosée Vitesse
du vent
Direction Rafales Windchill Pression Pluviométrie
Cumul
Date
Heure
Températures Humidité Point de rosée Vitesse
du vent
Direction Rafales Windchill Pression Pluviométrie
Cumul
18/08/2022 15:1025.9 °C56 %16.4 °C12 km/hO23 km/h01014 hPa0.0 mm
18/08/2022 14:5027 °C55 %17.2 °C9 km/hO18 km/h01014 hPa0.0 mm
18/08/2022 14:4026.7 °C55 %16.9 °C4 km/hNO15 km/h01014 hPa0.0 mm
18/08/2022 14:2025.9 °C59 %17.3 °C9 km/hO23 km/h01014 hPa0.0 mm
18/08/2022 14:1026 °C59 %17.4 °C8 km/hONO16 km/h01014 hPa0.0 mm
18/08/2022 13:5025.3 °C62 %17.5 °C5 km/hNNO16 km/h01014 hPa0.0 mm
18/08/2022 13:4025.6 °C59 %17 °C5 km/hONO15 km/h01014 hPa0.0 mm
18/08/2022 13:2024.8 °C62 %17 °C5 km/hONO15 km/h01014 hPa0.0 mm
18/08/2022 12:5023.3 °C70 %17.5 °C6 km/hO13 km/h01014 hPa0.0 mm
18/08/2022 12:4022.9 °C71 %17.3 °C2 km/hONO6 km/h01015 hPa0.0 mm
18/08/2022 12:2022.1 °C72 %16.8 °C3 km/hNO8 km/h01015 hPa0.0 mm
18/08/2022 12:1021.8 °C71 %16.3 °C6 km/hONO15 km/h01015 hPa0.0 mm
18/08/2022 11:5021.6 °C74 %16.7 °C5 km/hO15 km/h01014 hPa0.0 mm
18/08/2022 11:4021.2 °C78 %17.2 °C6 km/hO16 km/h01014 hPa0.0 mm
18/08/2022 11:2020 °C83 %17 °C6 km/hO16 km/h01014 hPa0.0 mm
18/08/2022 11:1019.8 °C83 %16.8 °C9 km/hOSO16 km/h01014 hPa0.0 mm
18/08/2022 10:5018.9 °C85 %16.4 °C4 km/hO13 km/h01014 hPa0.0 mm
18/08/2022 10:4018.6 °C84 %15.8 °C5 km/hO10 km/h01015 hPa0.0 mm
18/08/2022 10:2018.5 °C84 %15.7 °C2 km/hOSO5 km/h01015 hPa0.0 mm
18/08/2022 10:1018.4 °C85 %15.9 °C3 km/hOSO8 km/h01015 hPa0.0 mm
18/08/2022 10:0018.4 °C85 %15.8 °C6 km/hOSO11 km/h01014 hPa0.0 mm
18/08/2022 09:4018.3 °C85 %15.7 °C7 km/hO15 km/h01014 hPa0.0 mm
18/08/2022 09:2018 °C85 %15.4 °C6 km/hO15 km/h01014 hPa0.0 mm
18/08/2022 09:1017.9 °C87 %15.7 °C6 km/hO13 km/h01014 hPa0.0 mm
18/08/2022 08:5017.4 °C87 %15.3 °C1 km/hONO8 km/h01014 hPa0.0 mm
18/08/2022 08:1017.2 °C88 %15.2 °C3 km/hO11 km/h01014 hPa0.0 mm
18/08/2022 07:5016.9 °C89 %15.1 °C---01014 hPa0.0 mm
18/08/2022 07:4016.9 °C89 %15.1 °C---01014 hPa0.0 mm
18/08/2022 07:1016.9 °C90 %15.2 °C---01014 hPa0.0 mm
18/08/2022 05:1017.1 °C91 %15.6 °C3 km/hOSO5 km/h01013 hPa0.0 mm
18/08/2022 04:4017.1 °C91 %15.6 °C---01013 hPa0.0 mm
18/08/2022 04:1017.1 °C91 %15.6 °C---01013 hPa0.0 mm
18/08/2022 02:5017.6 °C88 %15.5 °C-2 km/h01013 hPa0.0 mm
18/08/2022 02:1017.8 °C89 %15.9 °C-2 km/h01013 hPa0.0 mm
18/08/2022 01:4017.7 °C89 %15.9 °C2 km/hSO5 km/h01013 hPa2.4 mm


Minima :

Température : 16.9 °C
Humidité : 55 %
Point de rosée : 15.1 °C
Vent moyen : 1 km/h
Windchill : 0
Pression atm. : 1013 hPa
Maxima :

Température : 27 °C
Humidité : 91 %
Point de rosée : 17.5 °C
Vent moyen : 12 km/h
Windchill : 0
Pression atm. : 1015 hPa
Rafales max : 23 km/h
Cumul de pluie sur 24H : 2.4 mm

Colombiers est une commune du département Cher (18).
La station météorologique du réseau de l'association la plus proche de Colombiers est celle de Culan



Icône Facebook Association Météo Centre Icône Twitter Association Météo Centre Icône Chaîne Youtube Association Météo Centre Icône contact Association Météo Centre Icône Insta Association Météo Centre